This is the latest recevied weather packets stored in our database for station/object YG1CIC-13. If no packets are shown the sender has not sent any weather packets the latest 10 day(s).
| Time | Temp. | Humidity | Pressure | Rain* | Wind** | Luminosity | Snow |
|---|---|---|---|---|---|---|---|
| 1777685972 | 42.22° C | 46% | - | 0 mm | - | - | - |
| 1777685371 | 42.22° C | 46% | - | 0 mm | - | - | - |
| 1777684771 | 42.22° C | 46% | - | 0 mm | - | - | - |
| 1777684170 | 42.22° C | 47% | - | 0 mm | - | - | - |
| 1777683570 | 41.67° C | 48% | - | 0 mm | - | - | - |
| 1777682969 | 40.56° C | 51% | - | 0 mm | - | - | - |
| 1777682369 | 38.33° C | 55% | - | 0 mm | - | - | - |
| 1777681776 | 37.22° C | 57% | - | 0 mm | - | - | - |
| 1777681167 | 36.11° C | 62% | - | 0 mm | - | - | - |
| 1777680566 | 31.67° C | 74% | - | 0 mm | - | - | - |
| 1777679966 | 30° C | 80% | - | 0 mm | - | - | - |
| 1777679365 | 29.44° C | 83% | - | 0 mm | - | - | - |
| 1777678765 | 28.89° C | 85% | - | 0 mm | - | - | - |
| 1777678171 | 27.22° C | 91% | - | 0 mm | - | - | - |
| 1777677563 | 27.22° C | 92% | - | 0 mm | - | - | - |
| 1777676963 | 26.67° C | 93% | - | 0 mm | - | - | - |
| 1777676362 | 26.67° C | 93% | - | 0 mm | - | - | - |
| 1777675761 | 26.67° C | 93% | - | 0 mm | - | - | - |
| 1777675161 | 26.67° C | 94% | - | 0 mm | - | - | - |
| 1777674561 | 26.67° C | 93% | - | 0 mm | - | - | - |
| 1777673961 | 26.67° C | 93% | - | 0 mm | - | - | - |
| 1777673359 | 26.67° C | 93% | - | 0 mm | - | - | - |
| 1777672759 | 27.22° C | 92% | - | 0 mm | - | - | - |
| 1777672158 | 27.22° C | 92% | - | 0 mm | - | - | - |
| 1777671557 | 27.22° C | 92% | - | 0 mm | - | - | - |
* Rain latest hour (hover to see other rain measurements)
** Current wind speed in m/s (hover to see current wind gust speed)